createdAt,value
2022-09-02T05:30:05.948Z,18.5
2022-09-02T05:33:37.212Z,18.5
2022-09-02T05:36:37.450Z,18.5
2022-09-02T05:39:36.971Z,18.5
2022-09-02T05:42:37.675Z,18.5
2022-09-02T05:45:37.614Z,18.5
2022-09-02T05:46:41.192Z,18.5
2022-09-02T05:48:41.021Z,18.5
2022-09-02T05:51:26.819Z,18.5
2022-09-02T05:54:37.340Z,18.5
2022-09-02T05:57:01.474Z,18.5
2022-09-02T05:57:37.048Z,18.5
2022-09-02T06:00:33.361Z,18.5
2022-09-02T06:01:24.173Z,18.5
2022-09-02T06:03:37.709Z,18.5
2022-09-02T06:06:37.292Z,18.5
2022-09-02T06:08:39.179Z,18.5
2022-09-02T06:09:37.316Z,18.5
2022-09-02T06:15:38.707Z,18.5
2022-09-02T06:17:46.363Z,18.5
2022-09-02T06:18:43.309Z,18.5
2022-09-02T06:21:37.075Z,18.5
2022-09-02T06:23:08.882Z,18.5
2022-09-02T06:24:37.747Z,18.5
2022-09-02T06:27:47.950Z,18.5
2022-09-02T06:33:37.647Z,18.5
2022-09-02T06:36:37.672Z,18.5
2022-09-02T06:38:20.713Z,18.5
2022-09-02T06:39:37.267Z,18.5
2022-09-02T06:42:36.989Z,18.5
2022-09-02T06:45:38.071Z,18.5
2022-09-02T06:48:37.974Z,18.5
2022-09-02T06:50:16.701Z,18.5
2022-09-02T06:51:36.572Z,18.5
2022-09-02T06:53:12.719Z,18.5
2022-09-02T06:54:38.691Z,18.5
2022-09-02T06:57:37.186Z,18.5
2022-09-02T07:03:38.121Z,20.9
2022-09-02T07:06:37.711Z,20.9
2022-09-02T07:09:38.083Z,20.9
2022-09-02T07:11:39.051Z,20.9
2022-09-02T07:12:37.587Z,20.9
2022-09-02T07:15:29.957Z,20.9
2022-09-02T07:18:37.119Z,20.9
2022-09-02T07:19:49.542Z,20.9
2022-09-02T07:21:37.670Z,20.9
2022-09-02T07:24:37.791Z,20.9
2022-09-02T07:27:37.193Z,20.9
2022-09-02T07:33:38.016Z,20.9
2022-09-02T07:35:47.256Z,20.9
2022-09-02T07:36:37.461Z,20.9
2022-09-02T07:39:14.130Z,20.9
2022-09-02T07:42:37.172Z,20.9
2022-09-02T07:44:00.396Z,20.9
2022-09-02T07:45:38.084Z,21.8
2022-09-02T07:48:37.558Z,21.8
2022-09-02T07:50:24.074Z,21.8
2022-09-02T07:51:38.265Z,21.8
2022-09-02T07:53:07.695Z,21.8
2022-09-02T07:54:37.845Z,21.8
2022-09-02T07:57:37.440Z,21.8
2022-09-02T08:00:03.230Z,21.8
2022-09-02T08:03:37.391Z,21.8
2022-09-02T08:06:38.226Z,22.2
2022-09-02T08:09:37.342Z,22.2
2022-09-02T08:12:37.337Z,22.2
2022-09-02T08:15:38.172Z,22.2
2022-09-02T08:18:37.472Z,22.2
2022-09-02T08:19:21.766Z,22.2
2022-09-02T08:21:37.129Z,22.2
2022-09-02T08:23:36.528Z,22.2
2022-09-02T08:24:37.314Z,22.2
2022-09-02T08:27:38.022Z,22.2
2022-09-02T08:33:37.823Z,22.4
2022-09-02T08:36:00.390Z,22.4
2022-09-02T08:36:37.394Z,22.4
2022-09-02T08:37:24.754Z,22.4
2022-09-02T08:39:37.415Z,22.4
2022-09-02T08:42:10.350Z,22.4
2022-09-02T08:45:48.099Z,22.4
2022-09-02T08:48:36.970Z,22.4
2022-09-02T08:50:46.231Z,22.4
2022-09-02T08:51:40.205Z,22.4
2022-09-02T08:53:37.909Z,22.4
2022-09-02T08:54:37.575Z,22.4
2022-09-02T08:55:44.130Z,22.4
2022-09-02T08:57:45.053Z,22.4
2022-09-02T08:59:59.234Z,22.4
2022-09-02T09:03:38.217Z,22.4
2022-09-02T09:06:13.701Z,22.4
2022-09-02T09:09:37.591Z,22.4
2022-09-02T09:10:42.292Z,22.4
2022-09-02T09:12:08.238Z,22.4
2022-09-02T09:15:37.525Z,22.4
2022-09-02T09:18:37.308Z,23.3
2022-09-02T09:21:38.368Z,23.3
2022-09-02T09:24:37.773Z,23.3
2022-09-02T09:27:37.586Z,23.3
2022-09-02T09:28:13.970Z,23.3
2022-09-02T09:29:03.232Z,23.3
2022-09-02T09:33:37.202Z,23.3
2022-09-02T09:36:37.781Z,23.3
2022-09-02T09:39:37.114Z,23.3
2022-09-02T09:41:37.679Z,23.3
2022-09-02T09:42:37.680Z,23.3
2022-09-02T09:44:59.095Z,23.3
2022-09-02T09:45:37.914Z,23.3
2022-09-02T09:47:59.587Z,23.3
2022-09-02T09:48:37.544Z,23.3
2022-09-02T09:51:50.997Z,23.3
2022-09-02T09:54:37.006Z,23.3
2022-09-02T09:55:25.980Z,23.8
2022-09-02T09:57:16.444Z,23.8
2022-09-02T10:03:37.331Z,24.2
2022-09-02T10:05:28.722Z,24.2
2022-09-02T10:06:37.405Z,24.2
2022-09-02T10:09:37.404Z,24.2
2022-09-02T10:12:37.476Z,24.2
2022-09-02T10:15:37.155Z,24.2
2022-09-02T10:17:39.251Z,24.2
2022-09-02T10:18:37.058Z,24.2
2022-09-02T10:21:45.453Z,24.2
2022-09-02T10:24:31.643Z,24.2
2022-09-02T10:25:57.819Z,24.2
2022-09-02T10:26:50.710Z,24.2
2022-09-02T10:27:37.096Z,24.2
2022-09-02T10:29:17.657Z,24.2
2022-09-02T10:32:17.505Z,24.2
2022-09-02T10:33:37.552Z,24.2
2022-09-02T10:36:37.098Z,24.2
2022-09-02T10:38:12.516Z,24.2
2022-09-02T10:39:37.591Z,24.2
2022-09-02T10:42:37.054Z,24.2
2022-09-02T10:45:37.744Z,24.2
2022-09-02T10:47:32.482Z,24.2
2022-09-02T10:48:37.528Z,24.2
2022-09-02T10:49:27.828Z,24.2
2022-09-02T10:51:37.856Z,24.2
2022-09-02T10:54:37.373Z,24.2
2022-09-02T10:57:37.397Z,24.2
2022-09-02T11:00:16.428Z,24.8
2022-09-02T11:03:43.076Z,24.8
2022-09-02T11:05:08.180Z,24.8
2022-09-02T11:07:04.207Z,24.8
2022-09-02T11:09:37.555Z,24.8
2022-09-02T11:10:49.164Z,24.8
2022-09-02T11:12:37.222Z,24.8
2022-09-02T11:15:41.781Z,24.8
2022-09-02T11:18:38.573Z,24.4
2022-09-02T11:19:32.575Z,24.4
2022-09-02T11:21:33.189Z,24.4
2022-09-02T11:24:27.536Z,24.4
2022-09-02T11:27:43.801Z,25
2022-09-02T11:30:31.692Z,25
2022-09-02T11:33:37.347Z,25
2022-09-02T11:37:11.439Z,25
2022-09-02T11:40:34.117Z,25
2022-09-02T11:42:37.549Z,25
2022-09-02T11:45:39.466Z,25
2022-09-02T11:48:37.495Z,25
2022-09-02T11:51:38.037Z,25
2022-09-02T11:54:37.536Z,25
2022-09-02T11:57:37.222Z,25
2022-09-02T12:01:50.322Z,25
2022-09-02T12:05:01.068Z,25
2022-09-02T12:06:38.892Z,25
2022-09-02T12:07:11.902Z,25
2022-09-02T12:09:26.070Z,25
2022-09-02T12:15:38.055Z,25
2022-09-02T12:16:49.153Z,25
2022-09-02T12:18:37.491Z,25
2022-09-02T12:21:37.337Z,25
2022-09-02T12:24:37.846Z,25
2022-09-02T12:27:37.851Z,25
2022-09-02T12:28:31.673Z,25
2022-09-02T12:33:09.438Z,25
2022-09-02T12:35:14.446Z,25
2022-09-02T12:36:37.714Z,25
2022-09-02T12:39:37.431Z,25
2022-09-02T12:41:57.450Z,25
2022-09-02T12:42:48.358Z,25
2022-09-02T12:45:37.963Z,25
2022-09-02T12:48:42.363Z,25
2022-09-02T12:51:22.869Z,25
2022-09-02T12:54:37.808Z,25
2022-09-02T12:55:40.532Z,25
2022-09-02T12:57:37.619Z,25
2022-09-02T13:00:45.204Z,25
2022-09-02T13:06:37.799Z,25
2022-09-02T13:07:49.490Z,25
2022-09-02T13:09:37.412Z,25
2022-09-02T13:10:39.448Z,25
2022-09-02T13:12:37.935Z,25
2022-09-02T13:14:55.005Z,25
2022-09-02T13:15:37.615Z,25
2022-09-02T13:17:37.649Z,25
2022-09-02T13:18:37.689Z,25
2022-09-02T13:20:13.394Z,25
2022-09-02T13:21:38.372Z,25
2022-09-02T13:24:01.125Z,25
2022-09-02T13:24:37.333Z,25
2022-09-02T13:27:37.157Z,25
2022-09-02T13:33:43.121Z,25
2022-09-02T13:36:37.658Z,25
2022-09-02T13:39:38.428Z,25
2022-09-02T13:42:37.931Z,25
2022-09-02T13:48:38.047Z,25
2022-09-02T13:52:17.573Z,25
2022-09-02T13:54:37.154Z,25
2022-09-02T13:57:36.988Z,25
2022-09-02T14:00:52.422Z,25
2022-09-02T14:01:22.084Z,25
2022-09-02T14:03:39.145Z,25
2022-09-02T14:05:48.929Z,25
2022-09-02T14:06:37.169Z,25
2022-09-02T14:09:37.910Z,25
2022-09-02T14:12:37.453Z,25
2022-09-02T14:15:38.014Z,25
2022-09-02T14:17:40.026Z,25
2022-09-02T14:18:37.595Z,25
2022-09-02T14:21:37.188Z,25
2022-09-02T14:24:37.818Z,25
2022-09-02T14:26:41.515Z,25
2022-09-02T14:31:41.876Z,25
2022-09-02T14:33:37.047Z,25
2022-09-02T14:36:37.714Z,25
2022-09-02T14:38:25.754Z,25
2022-09-02T14:39:38.168Z,25
2022-09-02T14:42:37.660Z,25
2022-09-02T14:45:42.984Z,25
2022-09-02T14:49:00.403Z,25
2022-09-02T14:51:37.830Z,25
2022-09-02T14:54:37.007Z,25
2022-09-02T14:57:37.834Z,25
2022-09-02T15:03:37.954Z,25
2022-09-02T15:06:37.475Z,25
2022-09-02T15:09:37.241Z,25
2022-09-02T15:11:02.536Z,25
2022-09-02T15:12:37.073Z,25
2022-09-02T15:15:43.014Z,25
2022-09-02T15:18:09.894Z,25
2022-09-02T15:19:47.896Z,25
2022-09-02T15:21:39.358Z,25
2022-09-02T15:24:37.878Z,25
2022-09-02T15:25:49.705Z,25
2022-09-02T15:27:37.599Z,25
2022-09-02T15:28:21.770Z,25
2022-09-02T15:33:37.982Z,25
2022-09-02T15:35:59.011Z,25
2022-09-02T15:36:37.425Z,25
2022-09-02T15:37:15.937Z,25
2022-09-02T15:39:37.493Z,25
2022-09-02T15:41:33.503Z,25
2022-09-02T15:42:37.485Z,25
2022-09-02T15:45:36.987Z,25
2022-09-02T15:48:37.900Z,25
2022-09-02T15:51:38.356Z,25
2022-09-02T15:55:54.718Z,25
2022-09-02T15:57:39.205Z,25.5
2022-09-02T16:03:38.271Z,25.5
2022-09-02T16:06:38.952Z,25.5
2022-09-02T16:07:18.726Z,25.2
2022-09-02T16:09:37.931Z,25.2
2022-09-02T16:12:37.607Z,25.2
2022-09-02T16:15:12.870Z,25.2
2022-09-02T16:18:39.588Z,25.2
2022-09-02T16:19:33.461Z,25.2
2022-09-02T16:21:37.602Z,25.2
2022-09-02T16:23:44.190Z,25.3
2022-09-02T16:24:37.954Z,25.3
2022-09-02T16:26:00.042Z,25.3
2022-09-02T16:27:21.756Z,25.4
2022-09-02T16:28:36.767Z,25.4
2022-09-02T16:30:15.787Z,25.4
2022-09-02T16:33:37.963Z,25.4
2022-09-02T16:36:08.765Z,25.4
2022-09-02T16:39:37.839Z,25.3
2022-09-02T16:41:11.312Z,25.3
2022-09-02T16:42:39.627Z,25.3
2022-09-02T16:44:40.463Z,25.3
2022-09-02T16:46:37.445Z,25.3
2022-09-02T16:48:37.044Z,25.2
2022-09-02T16:51:37.809Z,25.2
2022-09-02T16:52:10.873Z,25.1
2022-09-02T16:52:55.878Z,25.1
2022-09-02T16:54:41.845Z,25.1
2022-09-02T16:55:47.729Z,25.1
2022-09-02T16:57:37.845Z,25.1
2022-09-02T16:58:12.970Z,25.1
2022-09-02T17:03:37.476Z,25.2
2022-09-02T17:06:42.823Z,25.2
2022-09-02T17:07:21.874Z,25.2
2022-09-02T17:09:37.941Z,25.1
2022-09-02T17:10:38.595Z,25.1
2022-09-02T17:12:43.770Z,25.1
2022-09-02T17:15:37.789Z,25.1
2022-09-02T17:18:39.615Z,25.1
2022-09-02T17:21:37.917Z,25.1
2022-09-02T17:22:41.937Z,24.9
2022-09-02T17:23:18.259Z,24.9
2022-09-02T17:24:37.713Z,24.9
2022-09-02T17:26:36.935Z,24.9
2022-09-02T17:27:37.492Z,24.8
2022-09-02T17:29:50.500Z,24.8
2022-09-02T17:32:09.026Z,24.8
2022-09-02T17:33:37.343Z,24.7
2022-09-02T17:36:37.976Z,24.7
2022-09-02T17:38:27.810Z,24.7
2022-09-02T17:39:08.546Z,24.7
2022-09-02T17:42:39.680Z,24.6
2022-09-02T17:45:37.619Z,24.6
2022-09-02T17:49:17.814Z,24.5
2022-09-02T17:49:18.183Z,24.5
2022-09-02T17:51:26.524Z,24.5
2022-09-02T17:54:38.734Z,24.4
2022-09-02T17:57:30.413Z,24.4
2022-09-02T17:59:20.199Z,24.4
2022-09-02T18:01:09.513Z,24.4
2022-09-02T18:03:37.510Z,24.4
2022-09-02T18:06:39.053Z,24.4
2022-09-02T18:09:37.626Z,24.3
2022-09-02T18:12:26.575Z,24.2
2022-09-02T18:15:37.566Z,24.2
2022-09-02T18:18:23.871Z,24.2
2022-09-02T18:21:37.817Z,24.2
2022-09-02T18:22:50.006Z,24.1
2022-09-02T18:24:37.442Z,24.1
2022-09-02T18:26:28.261Z,24.1
2022-09-02T18:27:22.530Z,24
2022-09-02T18:33:37.798Z,23.9
2022-09-02T18:35:45.361Z,23.9
2022-09-02T18:36:37.758Z,23.9
2022-09-02T18:39:37.957Z,23.8
2022-09-02T18:42:38.747Z,23.7
2022-09-02T18:45:22.520Z,23.7
2022-09-02T18:48:20.013Z,23.7
2022-09-02T18:51:37.661Z,23.7
2022-09-02T18:52:16.744Z,23.6
2022-09-02T18:54:39.753Z,23.6
2022-09-02T18:56:50.582Z,23.6
2022-09-02T18:57:37.828Z,23.5
2022-09-02T19:00:04.521Z,23.5
2022-09-02T19:03:37.619Z,23.4
2022-09-02T19:06:39.446Z,23.4
2022-09-02T19:09:37.386Z,23.2
2022-09-02T19:10:40.367Z,23.2
2022-09-02T19:11:13.975Z,23.2
2022-09-02T19:12:37.156Z,23.1
2022-09-02T19:14:52.762Z,23.1
2022-09-02T19:15:38.117Z,23.1
2022-09-02T19:18:38.870Z,23
2022-09-02T19:19:40.725Z,23
2022-09-02T19:20:42.508Z,23
2022-09-02T19:21:38.079Z,23
2022-09-02T19:24:38.008Z,22.8
2022-09-02T19:27:37.944Z,22.7
2022-09-02T19:29:53.002Z,22.7
2022-09-02T19:33:37.425Z,22.7
2022-09-02T19:36:20.117Z,22.7
2022-09-02T19:37:45.450Z,22.6
2022-09-02T19:39:37.639Z,22.6
2022-09-02T19:40:40.609Z,22.6
2022-09-02T19:41:49.816Z,22.6
2022-09-02T19:42:32.297Z,22.6
2022-09-02T19:45:38.301Z,22.6
2022-09-02T19:48:08.204Z,22.6
2022-09-02T19:48:09.789Z,22.6
2022-09-02T19:51:37.706Z,22.6
2022-09-02T19:54:26.249Z,22.5
2022-09-02T19:57:37.410Z,22.4
2022-09-02T20:00:45.908Z,22.4
2022-09-02T20:03:38.141Z,22.4
2022-09-02T20:06:38.813Z,22.3
2022-09-02T20:09:23.915Z,22.3
2022-09-02T20:12:43.359Z,22.2
2022-09-02T20:15:16.415Z,22.2
2022-09-02T20:16:37.946Z,22.2
2022-09-02T20:18:39.021Z,22.1
2022-09-02T20:21:37.991Z,22.1
2022-09-02T20:24:07.769Z,22
2022-09-02T20:24:37.875Z,22
2022-09-02T20:27:38.573Z,21.9
2022-09-02T20:28:46.224Z,21.9
2022-09-02T20:30:40.381Z,21.9
2022-09-02T20:31:35.229Z,21.9
2022-09-02T20:33:37.632Z,21.9
2022-09-02T20:34:18.399Z,21.9
2022-09-02T20:36:37.650Z,21.9
2022-09-02T20:39:44.610Z,21.8
2022-09-02T20:42:39.295Z,21.7
2022-09-02T20:43:20.539Z,21.7
2022-09-02T20:45:38.085Z,21.7
2022-09-02T20:46:42.054Z,21.7
2022-09-02T20:48:37.213Z,21.7
2022-09-02T20:51:37.791Z,21.7
2022-09-02T20:58:45.837Z,21.7
2022-09-02T21:03:39.011Z,21.7
2022-09-02T21:05:23.334Z,21.7
2022-09-02T21:06:54.314Z,21.7
2022-09-02T21:09:41.130Z,21.5
2022-09-02T21:14:03.175Z,21.4
2022-09-02T21:18:39.143Z,21.3
2022-09-02T21:20:49.669Z,21.3
2022-09-02T21:21:37.824Z,21.3
2022-09-02T21:22:42.168Z,21.2
2022-09-02T21:24:37.935Z,21.2
2022-09-02T21:27:37.791Z,21.2
2022-09-02T21:30:03.539Z,21.2
2022-09-02T21:34:03.336Z,21.2
2022-09-02T21:36:37.316Z,21.2
2022-09-02T21:39:16.339Z,21
2022-09-02T21:42:38.757Z,21
2022-09-02T21:45:37.799Z,21
2022-09-02T21:48:38.020Z,20.9
2022-09-02T21:49:44.235Z,20.9
2022-09-02T21:51:38.193Z,20.9
2022-09-02T21:54:38.794Z,20.9
2022-09-02T21:55:10.857Z,20.9
2022-09-02T21:57:19.899Z,20.9
2022-09-02T22:03:32.555Z,20.9
2022-09-02T22:05:34.434Z,20.9
2022-09-02T22:06:37.335Z,20.9
2022-09-02T22:08:36.921Z,20.9
2022-09-02T22:09:10.062Z,20.9
2022-09-02T22:11:30.190Z,21
2022-09-02T22:12:37.286Z,21
2022-09-02T22:14:15.118Z,21
2022-09-02T22:15:37.438Z,21
2022-09-02T22:18:39.120Z,21
2022-09-02T22:21:37.843Z,21
2022-09-02T22:24:37.633Z,21
2022-09-02T22:25:31.266Z,21
2022-09-02T22:26:18.509Z,21
2022-09-02T22:27:37.517Z,21
2022-09-02T22:29:23.942Z,21
2022-09-02T22:33:16.826Z,20.9
2022-09-02T22:34:45.153Z,20.9
2022-09-02T22:36:37.574Z,20.9
2022-09-02T22:38:32.818Z,20.9
2022-09-02T22:39:37.490Z,20.9
2022-09-02T22:42:39.289Z,20.8
2022-09-02T22:44:24.819Z,20.8
2022-09-02T22:45:37.792Z,20.8
2022-09-02T22:48:20.729Z,20.8
2022-09-02T22:50:05.066Z,20.8
2022-09-02T22:51:37.325Z,20.8
2022-09-02T22:53:31.961Z,20.7
2022-09-02T22:54:39.707Z,20.7
2022-09-02T22:57:38.009Z,20.7
2022-09-02T23:03:39.749Z,20.8
2022-09-02T23:06:23.713Z,20.8
2022-09-02T23:09:29.682Z,20.8
2022-09-02T23:11:48.270Z,20.8
2022-09-02T23:12:38.075Z,20.8
2022-09-02T23:15:16.823Z,20.8
2022-09-02T23:17:26.921Z,20.7
2022-09-02T23:18:38.777Z,20.7
2022-09-02T23:20:57.769Z,20.7
2022-09-02T23:21:37.673Z,20.7
2022-09-02T23:23:56.908Z,20.7
2022-09-02T23:24:36.997Z,20.7
2022-09-02T23:27:37.639Z,20.7
2022-09-02T23:33:37.964Z,20.6
2022-09-02T23:36:38.034Z,20.6
2022-09-02T23:39:37.963Z,20.6
2022-09-02T23:41:48.175Z,20.6
2022-09-02T23:42:39.505Z,20.6
2022-09-02T23:45:37.224Z,20.6
2022-09-02T23:46:25.282Z,20.6
2022-09-02T23:48:44.698Z,20.6
2022-09-02T23:50:26.387Z,20.6
2022-09-02T23:51:37.746Z,20.6
2022-09-02T23:52:21.189Z,20.6
2022-09-02T23:54:35.912Z,20.6
2022-09-02T23:57:37.848Z,20.6
